Time;durP1;ratioP1;P1;durP2;ratioP2;P2;SDS_P1;SDS_P2;PMS_P1;PMS_P2;Temp;Humidity;BMP_temperature;BMP_pressure;BME280_temperature;BME280_humidity;BME280_pressure;Samples;Min_cycle;Max_cycle;Signal;HPM_P1;HPM_P2
2023/05/24 00:00:31;;;;;;;17.60;3.95;;;;;;;;;;5032760;28;20251;-62
2023/05/24 00:02:56;;;;;;;18.50;4.00;;;;;;;;;;5033736;28;20228;-62
2023/05/24 00:05:22;;;;;;;15.10;3.97;;;;;;;;;;5032900;28;20215;-62
2023/05/24 00:07:47;;;;;;;19.30;4.25;;;;;;;;;;5032479;28;20281;-62
2023/05/24 00:10:13;;;;;;;19.70;4.30;;;;;;;;;;5032682;28;20254;-62
2023/05/24 00:12:38;;;;;;;18.55;3.88;;;;;;;;;;5032957;28;20824;-62
2023/05/24 00:15:03;;;;;;;21.45;4.32;;;;;;;;;;5031644;28;20211;-61
2023/05/24 00:17:29;;;;;;;17.85;3.85;;;;;;;;;;5028961;28;20345;-62
2023/05/24 00:19:54;;;;;;;19.42;3.65;;;;;;;;;;5032667;28;20232;-62
2023/05/24 00:22:20;;;;;;;18.83;4.07;;;;;;;;;;5031967;28;20239;-62
2023/05/24 00:24:46;;;;;;;18.95;3.75;;;;;;;;;;5032686;28;20280;-63
2023/05/24 00:27:12;;;;;;;20.00;3.92;;;;;;;;;;5032481;28;20239;-62
2023/05/24 00:29:37;;;;;;;14.13;3.25;;;;;;;;;;5032054;28;20302;-62
2023/05/24 00:32:03;;;;;;;16.48;3.72;;;;;;;;;;5032853;28;20222;-62
2023/05/24 00:34:28;;;;;;;17.05;3.83;;;;;;;;;;5032195;28;20219;-62
2023/05/24 00:36:53;;;;;;;16.23;3.50;;;;;;;;;;5032942;28;20212;-62
2023/05/24 00:39:18;;;;;;;13.32;3.33;;;;;;;;;;5030865;28;20211;-62
2023/05/24 00:41:44;;;;;;;14.88;3.28;;;;;;;;;;5031924;28;20219;-62
2023/05/24 00:44:09;;;;;;;14.73;3.75;;;;;;;;;;5031935;28;20302;-62
2023/05/24 00:46:35;;;;;;;14.23;3.60;;;;;;;;;;5032831;28;20265;-62
2023/05/24 00:49:00;;;;;;;16.58;3.25;;;;;;;;;;5031837;28;20631;-63
2023/05/24 00:51:26;;;;;;;18.88;3.95;;;;;;;;;;5032290;28;20211;-62
2023/05/24 00:53:52;;;;;;;18.65;3.55;;;;;;;;;;5030950;28;20262;-62
2023/05/24 00:56:17;;;;;;;16.83;3.70;;;;;;;;;;5030776;28;20216;-62
2023/05/24 00:58:42;;;;;;;18.40;4.13;;;;;;;;;;5032281;28;20298;-62
2023/05/24 01:01:08;;;;;;;18.38;3.60;;;;;;;;;;5031716;28;20224;-62
2023/05/24 01:03:34;;;;;;;15.80;3.88;;;;;;;;;;5031915;28;20219;-62
2023/05/24 01:06:00;;;;;;;17.40;3.28;;;;;;;;;;5032174;28;20574;-62
2023/05/24 01:08:33;;;;;;;14.95;3.33;;;;;;;;;;5031811;28;20246;-62
2023/05/24 01:11:06;;;;;;;16.05;3.38;;;;;;;;;;5011686;28;20259;-63
2023/05/24 01:13:33;;;;;;;12.60;3.38;;;;;;;;;;4998472;28;20274;-62
2023/05/24 01:16:00;;;;;;;13.50;3.78;;;;;;;;;;5001920;28;20228;-62
2023/05/24 01:18:29;;;;;;;17.75;3.83;;;;;;;;;;5016037;28;20679;-62
2023/05/24 01:21:01;;;;;;;19.45;4.20;;;;;;;;;;5037040;28;20715;-62
2023/05/24 01:23:31;;;;;;;13.40;3.35;;;;;;;;;;5014763;28;20222;-62
2023/05/24 01:26:02;;;;;;;15.60;3.65;;;;;;;;;;5035834;28;20216;-62
2023/05/24 01:28:27;;;;;;;14.23;3.70;;;;;;;;;;5008514;28;20270;-62
2023/05/24 01:30:53;;;;;;;19.83;3.92;;;;;;;;;;4997928;28;20220;-62
2023/05/24 01:33:18;;;;;;;14.70;3.70;;;;;;;;;;4994454;28;20264;-62
2023/05/24 01:35:44;;;;;;;18.50;4.03;;;;;;;;;;4994899;28;20911;-62
2023/05/24 01:38:10;;;;;;;20.02;4.00;;;;;;;;;;4997447;28;20231;-62
2023/05/24 01:40:36;;;;;;;14.10;3.63;;;;;;;;;;5020756;28;20302;-62
2023/05/24 01:43:14;;;;;;;18.77;3.72;;;;;;;;;;5020088;28;20228;-62
2023/05/24 01:45:49;;;;;;;18.95;4.03;;;;;;;;;;5007030;28;20227;-62
2023/05/24 01:48:26;;;;;;;15.85;3.70;;;;;;;;;;5036199;28;20214;-62
2023/05/24 01:50:54;;;;;;;16.98;3.75;;;;;;;;;;5019876;28;20215;-62
2023/05/24 01:53:19;;;;;;;15.77;4.47;;;;;;;;;;5016522;28;20232;-62
2023/05/24 01:55:46;;;;;;;17.23;4.05;;;;;;;;;;5006085;28;20266;-63
2023/05/24 01:58:11;;;;;;;22.73;3.85;;;;;;;;;;5009146;28;20208;-62
2023/05/24 02:00:37;;;;;;;18.05;4.13;;;;;;;;;;4997198;28;20224;-62
2023/05/24 02:03:02;;;;;;;18.13;4.20;;;;;;;;;;5001666;28;20687;-62
2023/05/24 02:05:27;;;;;;;19.10;4.13;;;;;;;;;;5016509;28;20246;-63
2023/05/24 02:07:52;;;;;;;20.50;4.00;;;;;;;;;;5001234;28;20283;-63
2023/05/24 02:10:18;;;;;;;21.33;5.10;;;;;;;;;;5001127;28;20687;-62
2023/05/24 02:12:43;;;;;;;18.73;3.90;;;;;;;;;;5002222;28;20899;-62
2023/05/24 02:15:09;;;;;;;18.83;4.68;;;;;;;;;;4999639;28;20212;-63
2023/05/24 02:17:34;;;;;;;19.20;3.58;;;;;;;;;;4997076;28;20261;-62
2023/05/24 02:19:59;;;;;;;17.42;4.07;;;;;;;;;;4993523;28;20240;-63
2023/05/24 02:22:25;;;;;;;15.95;3.80;;;;;;;;;;4994610;28;20286;-62
2023/05/24 02:24:50;;;;;;;18.80;4.43;;;;;;;;;;5001703;28;20247;-62
2023/05/24 02:27:15;;;;;;;20.35;4.22;;;;;;;;;;5000310;28;20220;-62
2023/05/24 02:29:41;;;;;;;15.73;3.58;;;;;;;;;;5002194;28;20217;-62
2023/05/24 02:32:06;;;;;;;18.02;4.10;;;;;;;;;;5001146;28;20690;-62
2023/05/24 02:34:31;;;;;;;20.05;4.22;;;;;;;;;;5018326;28;20224;-62
2023/05/24 02:36:57;;;;;;;18.27;4.60;;;;;;;;;;5020564;28;20916;-62
2023/05/24 02:39:22;;;;;;;17.98;3.78;;;;;;;;;;5014647;28;20215;-62
2023/05/24 02:41:47;;;;;;;17.90;4.13;;;;;;;;;;5012167;28;20338;-62
2023/05/24 02:44:12;;;;;;;21.50;4.80;;;;;;;;;;5013192;28;20219;-62
2023/05/24 02:46:37;;;;;;;17.02;4.30;;;;;;;;;;5019126;28;20224;-62
2023/05/24 02:49:03;;;;;;;15.80;3.80;;;;;;;;;;5019755;28;20220;-62
2023/05/24 02:51:29;;;;;;;18.23;4.00;;;;;;;;;;5020292;28;20208;-62
2023/05/24 02:53:54;;;;;;;18.77;4.30;;;;;;;;;;5020638;28;20707;-63
2023/05/24 02:56:20;;;;;;;17.73;4.75;;;;;;;;;;5007133;28;20216;-62
2023/05/24 02:58:46;;;;;;;20.27;4.45;;;;;;;;;;5020606;28;20315;-62
2023/05/24 03:01:11;;;;;;;16.95;4.15;;;;;;;;;;5016832;28;20306;-62
2023/05/24 03:03:37;;;;;;;17.08;4.07;;;;;;;;;;5016245;28;20212;-63
2023/05/24 03:06:02;;;;;;;21.58;4.05;;;;;;;;;;5016328;28;20215;-62
2023/05/24 03:08:27;;;;;;;12.32;3.10;;;;;;;;;;5020156;28;20307;-62
2023/05/24 03:10:53;;;;;;;18.25;3.92;;;;;;;;;;5024258;28;20220;-62
2023/05/24 03:13:18;;;;;;;16.80;4.13;;;;;;;;;;5033681;28;20262;-62
2023/05/24 03:15:43;;;;;;;17.75;3.80;;;;;;;;;;5034223;28;20208;-63
2023/05/24 03:18:09;;;;;;;15.95;4.03;;;;;;;;;;5033196;28;20246;-62
2023/05/24 03:20:34;;;;;;;17.80;4.57;;;;;;;;;;5033929;28;20318;-62
2023/05/24 03:22:59;;;;;;;16.30;4.05;;;;;;;;;;5033983;28;20219;-62
2023/05/24 03:25:26;;;;;;;19.02;3.75;;;;;;;;;;5032667;28;20247;-62
2023/05/24 03:27:51;;;;;;;20.67;4.68;;;;;;;;;;5033908;28;20212;-62
2023/05/24 03:30:16;;;;;;;21.00;4.55;;;;;;;;;;5032967;28;20254;-62
2023/05/24 03:32:41;;;;;;;18.75;4.68;;;;;;;;;;5034053;28;20222;-61
2023/05/24 03:35:10;;;;;;;16.40;4.38;;;;;;;;;;5033484;28;20578;-61
2023/05/24 03:37:36;;;;;;;19.65;4.72;;;;;;;;;;5033049;28;20215;-62
2023/05/24 03:40:03;;;;;;;17.17;4.07;;;;;;;;;;5033257;28;20223;-61
2023/05/24 03:42:28;;;;;;;20.60;4.82;;;;;;;;;;5033631;28;20211;-62
2023/05/24 03:44:53;;;;;;;18.08;4.68;;;;;;;;;;5033287;28;20365;-62
2023/05/24 03:47:19;;;;;;;18.88;4.40;;;;;;;;;;5032136;28;20215;-62
2023/05/24 03:49:44;;;;;;;18.33;4.55;;;;;;;;;;5033740;28;20212;-62
2023/05/24 03:52:09;;;;;;;17.92;4.85;;;;;;;;;;5032373;28;20216;-62
2023/05/24 03:54:34;;;;;;;14.98;4.38;;;;;;;;;;5033326;28;20219;-62
2023/05/24 03:57:00;;;;;;;14.57;4.50;;;;;;;;;;5033220;28;20293;-62
2023/05/24 03:59:25;;;;;;;21.80;4.78;;;;;;;;;;5032683;28;20220;-62
2023/05/24 04:01:51;;;;;;;20.48;4.72;;;;;;;;;;5033557;28;20671;-62
2023/05/24 04:04:16;;;;;;;16.90;4.50;;;;;;;;;;5033181;28;20215;-62
2023/05/24 04:06:41;;;;;;;16.73;5.03;;;;;;;;;;5032316;28;20215;-61
2023/05/24 04:09:06;;;;;;;19.27;4.80;;;;;;;;;;5032864;28;20664;-61
2023/05/24 04:11:32;;;;;;;16.50;4.68;;;;;;;;;;5032909;28;20215;-62
2023/05/24 04:14:03;;;;;;;17.65;4.30;;;;;;;;;;5030633;28;20219;-62
2023/05/24 04:16:32;;;;;;;17.92;4.90;;;;;;;;;;5032113;28;20211;-62
2023/05/24 04:18:59;;;;;;;17.52;4.72;;;;;;;;;;5032962;28;20240;-62
2023/05/24 04:21:25;;;;;;;24.05;5.43;;;;;;;;;;5031719;28;20207;-62
2023/05/24 04:23:50;;;;;;;18.92;5.30;;;;;;;;;;5032787;28;20215;-61
2023/05/24 04:26:16;;;;;;;19.05;5.00;;;;;;;;;;5032424;28;20715;-61
2023/05/24 04:28:41;;;;;;;20.90;5.65;;;;;;;;;;5032223;28;20349;-61
2023/05/24 04:31:08;;;;;;;22.20;5.50;;;;;;;;;;5032666;28;20661;-62
2023/05/24 04:33:34;;;;;;;17.60;4.82;;;;;;;;;;5032219;28;20227;-61
2023/05/24 04:36:00;;;;;;;21.70;5.05;;;;;;;;;;5032953;28;20567;-61
2023/05/24 04:38:28;;;;;;;18.35;5.43;;;;;;;;;;5032282;28;20247;-61
2023/05/24 04:40:54;;;;;;;22.35;5.40;;;;;;;;;;5005582;28;20224;-62
2023/05/24 04:43:19;;;;;;;19.33;5.72;;;;;;;;;;5008922;28;20756;-61
2023/05/24 04:45:44;;;;;;;18.17;5.22;;;;;;;;;;5042752;28;20232;-64
2023/05/24 04:48:10;;;;;;;18.83;4.95;;;;;;;;;;5040832;28;20208;-62
2023/05/24 04:50:36;;;;;;;24.13;5.97;;;;;;;;;;5038575;28;20422;-64
2023/05/24 04:53:02;;;;;;;22.00;5.78;;;;;;;;;;5031902;28;20729;-61
2023/05/24 04:55:27;;;;;;;18.80;5.35;;;;;;;;;;5031586;28;20212;-63
2023/05/24 04:57:52;;;;;;;20.58;5.50;;;;;;;;;;5042709;28;20210;-63
2023/05/24 05:00:18;;;;;;;23.27;5.75;;;;;;;;;;5037333;28;20214;-63
2023/05/24 05:02:43;;;;;;;16.83;4.80;;;;;;;;;;5031610;28;20220;-63
2023/05/24 05:05:08;;;;;;;19.58;5.13;;;;;;;;;;5033179;28;20239;-61
2023/05/24 05:07:34;;;;;;;20.70;5.18;;;;;;;;;;5042650;28;20203;-61
2023/05/24 05:09:59;;;;;;;17.48;5.15;;;;;;;;;;5040623;28;20202;-61
2023/05/24 05:12:25;;;;;;;20.95;5.00;;;;;;;;;;5040602;28;20729;-61
2023/05/24 05:14:50;;;;;;;22.88;5.60;;;;;;;;;;5039972;28;20223;-63
2023/05/24 05:17:15;;;;;;;22.15;5.97;;;;;;;;;;5039494;28;20290;-62
2023/05/24 05:19:40;;;;;;;21.52;5.30;;;;;;;;;;5041603;28;20269;-62
2023/05/24 05:22:06;;;;;;;22.63;5.43;;;;;;;;;;5041720;28;20660;-62
2023/05/24 05:24:31;;;;;;;24.25;5.38;;;;;;;;;;5034663;28;20212;-63
2023/05/24 05:26:56;;;;;;;23.35;5.32;;;;;;;;;;5041905;28;20563;-63
2023/05/24 05:29:22;;;;;;;19.92;5.80;;;;;;;;;;5040788;28;20223;-63
2023/05/24 05:31:47;;;;;;;18.40;5.20;;;;;;;;;;5040033;28;20205;-61
2023/05/24 05:34:12;;;;;;;22.40;6.10;;;;;;;;;;5038471;28;20512;-62
2023/05/24 05:36:39;;;;;;;20.85;5.18;;;;;;;;;;5039707;28;20216;-59
2023/05/24 05:39:08;;;;;;;26.98;5.95;;;;;;;;;;5040460;28;20261;-61
2023/05/24 05:41:33;;;;;;;21.30;5.70;;;;;;;;;;5041689;28;20211;-61
2023/05/24 05:43:59;;;;;;;22.45;4.90;;;;;;;;;;5035938;28;20208;-61
2023/05/24 05:46:24;;;;;;;26.98;5.88;;;;;;;;;;5039777;28;20216;-61
2023/05/24 05:48:49;;;;;;;23.35;5.05;;;;;;;;;;5040006;28;20560;-61
2023/05/24 05:51:15;;;;;;;22.88;5.05;;;;;;;;;;5036503;28;20700;-61
2023/05/24 05:53:40;;;;;;;18.88;5.32;;;;;;;;;;5041392;28;20215;-61
2023/05/24 05:56:06;;;;;;;18.40;5.13;;;;;;;;;;5035136;28;20693;-61
2023/05/24 05:58:31;;;;;;;22.52;5.13;;;;;;;;;;5038131;28;20222;-63
2023/05/24 06:00:56;;;;;;;20.80;5.10;;;;;;;;;;5031492;28;20285;-62
2023/05/24 06:03:21;;;;;;;28.30;5.93;;;;;;;;;;5031089;28;20610;-62
2023/05/24 06:05:47;;;;;;;21.92;5.20;;;;;;;;;;5030976;28;20744;-62
2023/05/24 06:08:12;;;;;;;21.10;4.82;;;;;;;;;;5030599;28;20219;-62
2023/05/24 06:10:37;;;;;;;20.95;4.65;;;;;;;;;;5031320;28;20624;-62
2023/05/24 06:13:03;;;;;;;24.27;5.20;;;;;;;;;;5029718;28;20227;-62
2023/05/24 06:15:28;;;;;;;25.65;5.65;;;;;;;;;;5031099;28;20623;-62
2023/05/24 06:17:54;;;;;;;23.88;5.32;;;;;;;;;;5031159;28;20207;-62
2023/05/24 06:20:19;;;;;;;24.20;5.43;;;;;;;;;;5026283;28;20257;-62
2023/05/24 06:22:45;;;;;;;23.48;4.40;;;;;;;;;;5037566;28;20234;-62
2023/05/24 06:25:13;;;;;;;22.98;5.35;;;;;;;;;;5030488;28;20219;-62
2023/05/24 06:27:38;;;;;;;22.40;5.43;;;;;;;;;;5030403;28;20443;-62
2023/05/24 06:30:04;;;;;;;25.98;6.10;;;;;;;;;;5030372;28;20303;-61
2023/05/24 06:32:29;;;;;;;19.15;4.60;;;;;;;;;;5031370;28;20243;-61
2023/05/24 06:34:55;;;;;;;26.30;4.85;;;;;;;;;;5030371;28;20235;-62
2023/05/24 06:37:24;;;;;;;21.80;4.88;;;;;;;;;;5039372;28;20250;-62
2023/05/24 06:39:49;;;;;;;22.20;4.63;;;;;;;;;;5051350;28;20294;-60
2023/05/24 06:42:14;;;;;;;24.85;4.63;;;;;;;;;;5053658;28;20297;-62
2023/05/24 06:44:40;;;;;;;25.10;4.55;;;;;;;;;;5037411;28;20216;-62
2023/05/24 06:47:05;;;;;;;25.35;4.38;;;;;;;;;;5033757;28;20219;-61
2023/05/24 06:49:30;;;;;;;21.98;4.47;;;;;;;;;;5019009;28;20735;-61
2023/05/24 06:51:56;;;;;;;19.58;4.85;;;;;;;;;;5014725;28;20216;-61
2023/05/24 06:54:21;;;;;;;21.85;4.85;;;;;;;;;;5019847;28;20220;-62
2023/05/24 06:56:46;;;;;;;24.52;4.93;;;;;;;;;;5019316;28;20220;-61
2023/05/24 06:59:12;;;;;;;18.98;4.25;;;;;;;;;;5043975;28;20230;-61
2023/05/24 07:01:38;;;;;;;24.73;5.05;;;;;;;;;;5036585;28;20211;-61
2023/05/24 07:04:04;;;;;;;19.83;4.72;;;;;;;;;;5034227;28;20687;-61
2023/05/24 07:06:31;;;;;;;19.75;4.50;;;;;;;;;;5034471;28;20218;-61
2023/05/24 07:08:56;;;;;;;20.48;4.53;;;;;;;;;;5030590;28;20216;-61
2023/05/24 07:11:21;;;;;;;23.98;4.63;;;;;;;;;;5013950;28;20219;-62
2023/05/24 07:13:47;;;;;;;18.80;4.55;;;;;;;;;;5014257;28;20221;-62
2023/05/24 07:16:12;;;;;;;21.58;4.65;;;;;;;;;;5032356;28;20212;-63
2023/05/24 07:18:40;;;;;;;22.20;4.95;;;;;;;;;;5033472;28;20239;-62
2023/05/24 07:21:05;;;;;;;22.38;4.72;;;;;;;;;;5030996;28;20220;-61
2023/05/24 07:23:31;;;;;;;23.47;5.13;;;;;;;;;;5033237;28;20499;-61
2023/05/24 07:25:56;;;;;;;21.10;4.65;;;;;;;;;;5033863;28;20212;-62
2023/05/24 07:28:21;;;;;;;20.30;4.45;;;;;;;;;;5030012;28;20295;-62
2023/05/24 07:30:47;;;;;;;20.75;4.22;;;;;;;;;;5033009;28;20295;-61
2023/05/24 07:33:12;;;;;;;21.27;4.55;;;;;;;;;;5033443;28;20585;-61
2023/05/24 07:35:38;;;;;;;19.73;4.30;;;;;;;;;;5032044;28;20230;-61
2023/05/24 07:38:03;;;;;;;21.02;4.60;;;;;;;;;;5029828;28;20203;-62
2023/05/24 07:40:28;;;;;;;19.05;3.80;;;;;;;;;;5032190;28;20619;-62
2023/05/24 07:42:54;;;;;;;18.13;3.78;;;;;;;;;;5029971;28;20207;-61
2023/05/24 07:45:19;;;;;;;19.35;4.75;;;;;;;;;;5029271;28;20622;-61
2023/05/24 07:47:44;;;;;;;17.88;4.85;;;;;;;;;;5029145;28;20339;-61
2023/05/24 07:50:10;;;;;;;18.83;3.80;;;;;;;;;;5030165;28;20219;-61
2023/05/24 07:52:37;;;;;;;20.45;4.65;;;;;;;;;;5028627;28;20212;-61
2023/05/24 07:55:03;;;;;;;20.50;4.57;;;;;;;;;;5030426;28;20280;-61
2023/05/24 07:57:28;;;;;;;20.40;4.27;;;;;;;;;;5030410;28;20507;-63
2023/05/24 07:59:53;;;;;;;19.52;5.20;;;;;;;;;;5030324;28;20223;-63
2023/05/24 08:02:18;;;;;;;15.65;4.28;;;;;;;;;;5030765;28;20303;-63
2023/05/24 08:04:45;;;;;;;15.30;4.10;;;;;;;;;;5032708;28;20223;-64
2023/05/24 08:07:10;;;;;;;17.23;4.47;;;;;;;;;;5030927;28;20619;-63
2023/05/24 08:09:37;;;;;;;19.70;4.50;;;;;;;;;;5024685;28;20536;-63
2023/05/24 08:12:03;;;;;;;19.23;3.92;;;;;;;;;;5027249;28;20258;-62
2023/05/24 08:14:28;;;;;;;20.83;4.90;;;;;;;;;;5028238;28;20441;-62
2023/05/24 08:16:53;;;;;;;18.20;4.28;;;;;;;;;;5029344;28;20235;-62
2023/05/24 08:19:19;;;;;;;16.98;3.92;;;;;;;;;;5029287;28;20242;-62
2023/05/24 08:21:45;;;;;;;18.85;4.22;;;;;;;;;;5032409;28;20643;-63
2023/05/24 08:24:10;;;;;;;17.80;4.22;;;;;;;;;;5029358;28;20299;-63
2023/05/24 08:26:36;;;;;;;13.80;3.70;;;;;;;;;;5027511;28;20223;-63
2023/05/24 08:29:03;;;;;;;17.48;3.75;;;;;;;;;;5028318;28;20298;-61
2023/05/24 08:31:29;;;;;;;16.38;4.25;;;;;;;;;;5029901;28;20256;-63
2023/05/24 08:33:56;;;;;;;16.67;3.63;;;;;;;;;;5030278;28;20222;-62
2023/05/24 08:36:21;;;;;;;17.92;3.72;;;;;;;;;;5035453;28;20708;-64
2023/05/24 08:38:46;;;;;;;18.73;3.83;;;;;;;;;;5032393;28;20242;-63
2023/05/24 08:41:12;;;;;;;15.40;4.00;;;;;;;;;;5027260;28;20219;-62
2023/05/24 08:43:37;;;;;;;17.55;4.60;;;;;;;;;;5027695;28;20694;-62
2023/05/24 08:46:02;;;;;;;15.60;3.97;;;;;;;;;;5031911;28;20242;-62
2023/05/24 08:48:28;;;;;;;18.67;3.92;;;;;;;;;;5030897;28;20207;-63
2023/05/24 08:50:53;;;;;;;19.08;4.90;;;;;;;;;;5029050;28;20222;-63
2023/05/24 08:53:18;;;;;;;19.02;3.83;;;;;;;;;;5029217;28;20218;-62
2023/05/24 08:55:43;;;;;;;15.80;3.80;;;;;;;;;;5028785;28;20220;-63
2023/05/24 08:58:09;;;;;;;15.88;4.10;;;;;;;;;;5031826;28;20215;-62
2023/05/24 09:00:34;;;;;;;17.27;3.88;;;;;;;;;;5028190;28;20211;-63
2023/05/24 09:02:59;;;;;;;18.40;4.18;;;;;;;;;;5027637;28;20208;-63
2023/05/24 09:05:25;;;;;;;23.40;5.10;;;;;;;;;;5029261;28;20231;-63
2023/05/24 09:07:50;;;;;;;12.88;3.85;;;;;;;;;;5030424;28;20207;-63
2023/05/24 09:10:15;;;;;;;19.10;4.30;;;;;;;;;;5028481;28;20204;-63
2023/05/24 09:12:44;;;;;;;15.80;4.03;;;;;;;;;;5027250;28;20216;-64
2023/05/24 09:15:09;;;;;;;18.70;4.03;;;;;;;;;;5028015;28;20228;-62
2023/05/24 09:17:35;;;;;;;14.23;5.03;;;;;;;;;;5035579;28;20224;-62
2023/05/24 09:20:01;;;;;;;19.08;4.40;;;;;;;;;;5033347;28;20563;-60
2023/05/24 09:22:27;;;;;;;18.58;4.15;;;;;;;;;;5036023;28;20219;-61
2023/05/24 09:24:52;;;;;;;14.13;4.30;;;;;;;;;;5040513;28;20235;-61
2023/05/24 09:27:20;;;;;;;12.93;3.75;;;;;;;;;;5035332;28;20297;-61
2023/05/24 09:29:47;;;;;;;16.95;3.90;;;;;;;;;;5030818;28;20223;-62
2023/05/24 09:32:13;;;;;;;13.80;3.50;;;;;;;;;;5030536;28;20211;-62
2023/05/24 09:34:40;;;;;;;16.13;3.72;;;;;;;;;;5034386;28;20249;-62
2023/05/24 09:37:06;;;;;;;17.05;3.90;;;;;;;;;;5029090;28;20211;-61
2023/05/24 09:39:32;;;;;;;14.13;3.92;;;;;;;;;;5022365;28;20270;-62
2023/05/24 09:41:57;;;;;;;12.73;3.58;;;;;;;;;;5028821;28;20207;-62
2023/05/24 09:44:25;;;;;;;18.27;3.83;;;;;;;;;;5029859;28;20239;-61
2023/05/24 09:46:51;;;;;;;14.25;4.03;;;;;;;;;;5031371;28;20216;-62
2023/05/24 09:49:16;;;;;;;17.73;3.97;;;;;;;;;;5027128;28;20204;-62
2023/05/24 09:51:41;;;;;;;12.82;3.85;;;;;;;;;;5023676;28;20307;-62
2023/05/24 09:54:07;;;;;;;16.83;3.90;;;;;;;;;;5029580;28;20220;-61
2023/05/24 09:56:32;;;;;;;13.63;3.65;;;;;;;;;;5026791;28;20223;-62
2023/05/24 09:58:57;;;;;;;12.48;3.40;;;;;;;;;;5026812;28;20208;-62
2023/05/24 10:01:24;;;;;;;14.00;3.75;;;;;;;;;;5025738;28;20701;-62
2023/05/24 10:03:56;;;;;;;14.73;3.58;;;;;;;;;;5030095;28;20294;-62
2023/05/24 10:06:22;;;;;;;14.43;3.20;;;;;;;;;;5023412;28;20366;-61
2023/05/24 10:08:48;;;;;;;11.52;3.35;;;;;;;;;;5030384;28;20232;-61
2023/05/24 10:11:13;;;;;;;10.85;3.30;;;;;;;;;;5025562;28;20611;-62
2023/05/24 10:13:38;;;;;;;12.15;3.65;;;;;;;;;;5029366;28;20695;-62
2023/05/24 10:16:04;;;;;;;12.85;3.22;;;;;;;;;;5027664;28;20208;-61
2023/05/24 10:18:29;;;;;;;11.70;3.10;;;;;;;;;;5029310;28;20316;-61
2023/05/24 10:20:55;;;;;;;11.18;3.45;;;;;;;;;;5010679;28;20588;-62
2023/05/24 10:23:20;;;;;;;15.02;4.10;;;;;;;;;;5014612;28;20219;-62
2023/05/24 10:25:49;;;;;;;13.88;3.30;;;;;;;;;;5028832;28;20220;-62
2023/05/24 10:28:15;;;;;;;14.00;3.30;;;;;;;;;;5027762;28;20208;-61
2023/05/24 10:30:46;;;;;;;13.32;3.50;;;;;;;;;;5026367;28;20701;-61
2023/05/24 10:33:11;;;;;;;14.15;3.47;;;;;;;;;;5028754;28;20262;-61
2023/05/24 10:35:37;;;;;;;10.90;3.00;;;;;;;;;;5027090;28;20619;-62
2023/05/24 10:38:05;;;;;;;11.98;3.65;;;;;;;;;;5028380;28;20227;-61
2023/05/24 10:40:30;;;;;;;11.32;3.80;;;;;;;;;;5026507;28;20254;-62
2023/05/24 10:42:55;;;;;;;11.20;3.50;;;;;;;;;;5030740;28;20254;-62
2023/05/24 10:45:22;;;;;;;16.00;3.33;;;;;;;;;;5030360;28;20211;-61
2023/05/24 10:47:47;;;;;;;12.23;3.20;;;;;;;;;;5027592;28;20215;-62
2023/05/24 10:50:16;;;;;;;11.05;3.25;;;;;;;;;;5010497;28;20235;-61
2023/05/24 10:52:42;;;;;;;13.27;3.50;;;;;;;;;;5011307;28;20220;-61
2023/05/24 10:55:08;;;;;;;11.27;2.97;;;;;;;;;;5019729;28;20258;-61
2023/05/24 10:57:33;;;;;;;9.73;2.92;;;;;;;;;;5010958;28;20208;-63
2023/05/24 11:00:23;;;;;;;12.07;3.28;;;;;;;;;;5012177;28;20224;-62
2023/05/24 11:02:49;;;;;;;13.05;3.28;;;;;;;;;;5024321;28;20219;-62
2023/05/24 11:05:14;;;;;;;9.48;2.95;;;;;;;;;;5042938;28;20215;-61
2023/05/24 11:07:40;;;;;;;10.43;3.10;;;;;;;;;;5027950;28;21124;-61
2023/05/24 11:10:08;;;;;;;9.23;2.90;;;;;;;;;;5042403;28;20219;-61
2023/05/24 11:12:37;;;;;;;8.85;2.95;;;;;;;;;;5031325;28;20211;-62
2023/05/24 11:15:03;;;;;;;12.50;3.65;;;;;;;;;;5033276;28;20216;-62
2023/05/24 11:17:28;;;;;;;10.63;3.22;;;;;;;;;;5025501;28;20222;-62
2023/05/24 11:19:53;;;;;;;9.55;3.10;;;;;;;;;;5030162;28;20224;-62
2023/05/24 11:22:19;;;;;;;10.23;3.50;;;;;;;;;;5037277;28;20284;-62
2023/05/24 11:24:45;;;;;;;12.63;3.40;;;;;;;;;;5039475;28;20220;-62
2023/05/24 11:27:10;;;;;;;10.05;3.10;;;;;;;;;;5033708;28;20580;-62
2023/05/24 11:29:43;;;;;;;10.73;3.20;;;;;;;;;;5033339;28;20606;-62
2023/05/24 11:32:08;;;;;;;11.57;3.03;;;;;;;;;;5034010;28;20270;-61
2023/05/24 11:34:33;;;;;;;13.75;3.58;;;;;;;;;;5033754;28;20562;-62
2023/05/24 11:36:59;;;;;;;8.70;2.85;;;;;;;;;;5033207;28;20303;-62
2023/05/24 11:39:28;;;;;;;12.18;3.10;;;;;;;;;;5042263;28;20555;-62
2023/05/24 11:41:53;;;;;;;12.68;3.35;;;;;;;;;;5050861;28;20218;-62
2023/05/24 11:44:19;;;;;;;12.23;3.70;;;;;;;;;;5052502;28;20213;-61
2023/05/24 11:46:44;;;;;;;9.82;3.22;;;;;;;;;;5050375;28;20685;-62
2023/05/24 11:49:11;;;;;;;11.70;3.45;;;;;;;;;;5044741;28;20199;-62
2023/05/24 11:51:36;;;;;;;10.50;3.40;;;;;;;;;;5052972;28;20341;-62
2023/05/24 11:54:02;;;;;;;10.18;2.83;;;;;;;;;;5048618;28;20306;-61
2023/05/24 11:56:28;;;;;;;10.55;3.17;;;;;;;;;;5027296;28;20678;-63
2023/05/24 11:58:59;;;;;;;10.90;3.03;;;;;;;;;;5032693;28;20695;-62
2023/05/24 12:01:24;;;;;;;10.68;2.80;;;;;;;;;;5033126;28;20212;-62
2023/05/24 12:03:50;;;;;;;8.57;2.80;;;;;;;;;;5032764;28;20215;-62
2023/05/24 12:06:16;;;;;;;11.57;3.20;;;;;;;;;;5032794;28;20319;-62
2023/05/24 12:08:41;;;;;;;11.93;2.88;;;;;;;;;;5033041;28;20258;-62
2023/05/24 12:11:06;;;;;;;9.23;3.00;;;;;;;;;;5030742;28;20212;-62
2023/05/24 12:13:33;;;;;;;10.50;3.00;;;;;;;;;;5031465;28;20227;-62
2023/05/24 12:15:58;;;;;;;11.93;3.50;;;;;;;;;;5031755;28;20200;-62
2023/05/24 12:18:24;;;;;;;8.25;2.70;;;;;;;;;;5031964;28;20212;-62
2023/05/24 12:20:50;;;;;;;7.43;2.45;;;;;;;;;;5032881;28;20699;-62
2023/05/24 12:23:17;;;;;;;8.85;2.92;;;;;;;;;;5032350;28;20258;-62
2023/05/24 12:25:43;;;;;;;9.15;3.35;;;;;;;;;;5032160;28;20247;-62
2023/05/24 12:28:08;;;;;;;9.38;3.20;;;;;;;;;;5032448;28;20231;-62
2023/05/24 12:30:35;;;;;;;12.38;3.30;;;;;;;;;;5032844;28;20204;-62
2023/05/24 12:33:00;;;;;;;10.35;3.40;;;;;;;;;;5031806;28;20302;-60
2023/05/24 12:35:26;;;;;;;9.57;3.10;;;;;;;;;;5032684;28;20399;-62
2023/05/24 12:37:56;;;;;;;12.32;3.13;;;;;;;;;;5032520;28;20325;-62
2023/05/24 12:40:22;;;;;;;13.02;3.28;;;;;;;;;;5013579;28;20577;-62
2023/05/24 12:42:55;;;;;;;7.35;2.78;;;;;;;;;;5031441;28;20665;-63
2023/05/24 12:45:24;;;;;;;10.60;3.00;;;;;;;;;;5032362;28;20216;-62
2023/05/24 12:47:50;;;;;;;12.65;3.10;;;;;;;;;;5031993;28;20242;-62
2023/05/24 12:50:16;;;;;;;9.95;3.28;;;;;;;;;;5031842;28;20212;-62
2023/05/24 12:52:41;;;;;;;10.02;3.17;;;;;;;;;;5032349;28;20251;-62
2023/05/24 12:55:06;;;;;;;9.82;3.20;;;;;;;;;;5024503;28;20223;-62
2023/05/24 12:57:32;;;;;;;9.70;3.00;;;;;;;;;;5032338;28;20220;-63
2023/05/24 12:59:57;;;;;;;11.10;3.63;;;;;;;;;;5031781;28;20577;-62
2023/05/24 13:02:23;;;;;;;10.70;3.35;;;;;;;;;;5031851;28;20208;-62
2023/05/24 13:04:48;;;;;;;12.30;3.47;;;;;;;;;;5032205;28;20215;-62
2023/05/24 13:07:13;;;;;;;9.20;2.90;;;;;;;;;;5030901;28;20212;-62
2023/05/24 13:09:39;;;;;;;13.57;3.63;;;;;;;;;;5031896;28;20219;-62
2023/05/24 13:12:04;;;;;;;9.05;3.08;;;;;;;;;;5031589;28;20211;-62
2023/05/24 13:14:30;;;;;;;10.95;3.20;;;;;;;;;;5031008;28;20247;-62
2023/05/24 13:16:55;;;;;;;13.10;3.42;;;;;;;;;;5020632;28;20208;-62
2023/05/24 13:19:20;;;;;;;12.35;3.42;;;;;;;;;;5011600;28;20231;-62
2023/05/24 13:21:46;;;;;;;8.55;3.10;;;;;;;;;;5011327;28;20320;-62
2023/05/24 13:24:13;;;;;;;13.10;3.40;;;;;;;;;;5011370;28;20216;-62
2023/05/24 13:26:38;;;;;;;11.50;3.13;;;;;;;;;;5012093;28;20220;-62
2023/05/24 13:29:04;;;;;;;9.82;3.20;;;;;;;;;;5010995;28;20271;-62
2023/05/24 13:31:29;;;;;;;9.20;3.25;;;;;;;;;;5012359;28;20689;-62
2023/05/24 13:33:55;;;;;;;11.25;3.83;;;;;;;;;;5011887;28;20275;-63
2023/05/24 13:36:20;;;;;;;8.15;2.80;;;;;;;;;;5010867;28;20220;-62
2023/05/24 13:38:45;;;;;;;9.25;2.88;;;;;;;;;;5011739;28;20218;-63
2023/05/24 13:41:11;;;;;;;10.52;3.17;;;;;;;;;;5011291;28;20223;-62
2023/05/24 13:43:36;;;;;;;10.45;3.50;;;;;;;;;;5010892;28;20216;-62
2023/05/24 13:46:02;;;;;;;9.15;2.90;;;;;;;;;;5011130;28;20212;-62
2023/05/24 13:48:27;;;;;;;11.45;3.28;;;;;;;;;;5011785;28;20270;-63
2023/05/24 13:50:52;;;;;;;12.75;3.67;;;;;;;;;;5011393;28;20307;-63
2023/05/24 13:53:18;;;;;;;10.90;3.25;;;;;;;;;;5011135;28;20221;-62
2023/05/24 13:55:43;;;;;;;9.35;3.13;;;;;;;;;;5021695;28;20632;-63
2023/05/24 13:58:08;;;;;;;10.80;3.03;;;;;;;;;;4999712;28;20374;-63
2023/05/24 14:00:34;;;;;;;9.07;3.58;;;;;;;;;;5009301;28;20212;-62
2023/05/24 14:03:00;;;;;;;10.73;3.20;;;;;;;;;;5004878;28;20220;-63
2023/05/24 14:05:27;;;;;;;13.50;3.70;;;;;;;;;;5001639;28;20370;-63
2023/05/24 14:07:52;;;;;;;8.68;2.97;;;;;;;;;;5006925;28;20289;-63
2023/05/24 14:10:17;;;;;;;13.30;3.50;;;;;;;;;;5004711;28;20672;-62
2023/05/24 14:12:43;;;;;;;10.27;3.38;;;;;;;;;;5005736;28;20254;-63
2023/05/24 14:15:08;;;;;;;10.63;3.42;;;;;;;;;;5013227;28;20232;-62
2023/05/24 14:17:33;;;;;;;12.18;3.47;;;;;;;;;;5008664;28;20265;-62
2023/05/24 14:19:59;;;;;;;9.70;3.00;;;;;;;;;;5004833;28;20243;-63
2023/05/24 14:22:24;;;;;;;12.05;3.95;;;;;;;;;;4997635;28;20943;-63